sensor_id;sensor_type;location;lat;lon;timestamp;P1;durP1;ratioP1;P2;durP2;ratioP2
16101;SDS011;56411;52.964;10.540;2022-07-23T00:01:21;9.52;;;5.10;;
16101;SDS011;56411;52.964;10.540;2022-07-23T00:03:49;10.00;;;5.20;;
16101;SDS011;56411;52.964;10.540;2022-07-23T00:06:16;10.60;;;4.65;;
16101;SDS011;56411;52.964;10.540;2022-07-23T00:08:44;11.52;;;4.90;;
16101;SDS011;56411;52.964;10.540;2022-07-23T00:11:12;9.32;;;4.50;;
16101;SDS011;56411;52.964;10.540;2022-07-23T00:13:39;9.27;;;4.40;;
16101;SDS011;56411;52.964;10.540;2022-07-23T00:16:06;10.13;;;4.40;;
16101;SDS011;56411;52.964;10.540;2022-07-23T00:18:34;9.10;;;3.80;;
16101;SDS011;56411;52.964;10.540;2022-07-23T00:21:00;7.50;;;4.15;;
16101;SDS011;56411;52.964;10.540;2022-07-23T00:23:27;7.57;;;3.90;;
16101;SDS011;56411;52.964;10.540;2022-07-23T00:25:56;8.68;;;4.00;;
16101;SDS011;56411;52.964;10.540;2022-07-23T00:28:24;9.80;;;3.97;;
16101;SDS011;56411;52.964;10.540;2022-07-23T00:30:51;10.10;;;4.13;;
16101;SDS011;56411;52.964;10.540;2022-07-23T00:33:18;10.35;;;4.15;;
16101;SDS011;56411;52.964;10.540;2022-07-23T00:35:45;8.20;;;4.00;;
16101;SDS011;56411;52.964;10.540;2022-07-23T00:38:12;10.95;;;4.10;;
16101;SDS011;56411;52.964;10.540;2022-07-23T00:40:39;9.05;;;4.10;;
16101;SDS011;56411;52.964;10.540;2022-07-23T00:43:06;9.68;;;4.28;;
16101;SDS011;56411;52.964;10.540;2022-07-23T00:45:34;8.90;;;3.83;;
16101;SDS011;56411;52.964;10.540;2022-07-23T00:48:02;9.32;;;4.20;;
16101;SDS011;56411;52.964;10.540;2022-07-23T00:50:29;11.27;;;4.47;;
16101;SDS011;56411;52.964;10.540;2022-07-23T00:52:56;10.43;;;4.35;;
16101;SDS011;56411;52.964;10.540;2022-07-23T00:55:23;8.10;;;4.40;;
16101;SDS011;56411;52.964;10.540;2022-07-23T00:57:50;8.82;;;4.40;;
16101;SDS011;56411;52.964;10.540;2022-07-23T01:00:19;11.48;;;4.68;;
16101;SDS011;56411;52.964;10.540;2022-07-23T01:02:47;9.05;;;4.80;;
16101;SDS011;56411;52.964;10.540;2022-07-23T01:05:15;9.02;;;5.03;;
16101;SDS011;56411;52.964;10.540;2022-07-23T01:07:47;11.85;;;4.93;;
16101;SDS011;56411;52.964;10.540;2022-07-23T01:10:14;10.02;;;4.75;;
16101;SDS011;56411;52.964;10.540;2022-07-23T01:13:00;8.73;;;4.13;;
16101;SDS011;56411;52.964;10.540;2022-07-23T01:15:28;9.68;;;4.47;;
16101;SDS011;56411;52.964;10.540;2022-07-23T01:17:57;11.90;;;4.20;;
16101;SDS011;56411;52.964;10.540;2022-07-23T01:20:24;10.73;;;4.10;;
16101;SDS011;56411;52.964;10.540;2022-07-23T01:22:53;10.85;;;4.38;;
16101;SDS011;56411;52.964;10.540;2022-07-23T01:25:20;10.05;;;4.85;;
16101;SDS011;56411;52.964;10.540;2022-07-23T01:27:48;11.57;;;4.22;;
16101;SDS011;56411;52.964;10.540;2022-07-23T01:30:17;9.77;;;4.68;;
16101;SDS011;56411;52.964;10.540;2022-07-23T01:32:44;9.40;;;4.50;;
16101;SDS011;56411;52.964;10.540;2022-07-23T01:35:11;9.57;;;4.78;;
16101;SDS011;56411;52.964;10.540;2022-07-23T01:37:38;7.63;;;4.30;;
16101;SDS011;56411;52.964;10.540;2022-07-23T01:40:06;8.60;;;4.65;;
16101;SDS011;56411;52.964;10.540;2022-07-23T01:42:34;10.48;;;4.57;;
16101;SDS011;56411;52.964;10.540;2022-07-23T01:45:01;9.23;;;4.70;;
16101;SDS011;56411;52.964;10.540;2022-07-23T01:47:29;9.93;;;5.07;;
16101;SDS011;56411;52.964;10.540;2022-07-23T01:49:56;8.98;;;4.63;;
16101;SDS011;56411;52.964;10.540;2022-07-23T01:52:23;11.43;;;5.00;;
16101;SDS011;56411;52.964;10.540;2022-07-23T01:54:50;11.18;;;4.72;;
16101;SDS011;56411;52.964;10.540;2022-07-23T01:57:18;10.48;;;5.22;;
16101;SDS011;56411;52.964;10.540;2022-07-23T01:59:45;9.15;;;4.85;;
16101;SDS011;56411;52.964;10.540;2022-07-23T02:02:12;8.63;;;4.88;;
16101;SDS011;56411;52.964;10.540;2022-07-23T02:04:39;9.00;;;4.68;;
16101;SDS011;56411;52.964;10.540;2022-07-23T02:07:06;10.43;;;5.25;;
16101;SDS011;56411;52.964;10.540;2022-07-23T02:09:33;9.93;;;4.72;;
16101;SDS011;56411;52.964;10.540;2022-07-23T02:12:00;9.88;;;4.50;;
16101;SDS011;56411;52.964;10.540;2022-07-23T02:14:29;10.35;;;4.82;;
16101;SDS011;56411;52.964;10.540;2022-07-23T02:16:56;10.18;;;4.93;;
16101;SDS011;56411;52.964;10.540;2022-07-23T02:19:22;10.43;;;5.30;;
16101;SDS011;56411;52.964;10.540;2022-07-23T02:21:49;10.70;;;4.93;;
16101;SDS011;56411;52.964;10.540;2022-07-23T02:24:16;11.93;;;5.57;;
16101;SDS011;56411;52.964;10.540;2022-07-23T02:26:43;10.50;;;5.30;;
16101;SDS011;56411;52.964;10.540;2022-07-23T02:29:10;10.80;;;5.43;;
16101;SDS011;56411;52.964;10.540;2022-07-23T02:31:39;10.98;;;5.32;;
16101;SDS011;56411;52.964;10.540;2022-07-23T02:34:05;12.25;;;5.57;;
16101;SDS011;56411;52.964;10.540;2022-07-23T02:36:36;12.88;;;5.53;;
16101;SDS011;56411;52.964;10.540;2022-07-23T02:39:03;11.73;;;5.28;;
16101;SDS011;56411;52.964;10.540;2022-07-23T02:41:30;12.48;;;5.47;;
16101;SDS011;56411;52.964;10.540;2022-07-23T02:43:57;10.00;;;5.70;;
16101;SDS011;56411;52.964;10.540;2022-07-23T02:46:24;11.55;;;6.00;;
16101;SDS011;56411;52.964;10.540;2022-07-23T02:48:52;13.48;;;5.88;;
16101;SDS011;56411;52.964;10.540;2022-07-23T02:51:19;11.83;;;6.33;;
16101;SDS011;56411;52.964;10.540;2022-07-23T02:53:46;11.87;;;6.23;;
16101;SDS011;56411;52.964;10.540;2022-07-23T02:56:13;12.52;;;6.50;;
16101;SDS011;56411;52.964;10.540;2022-07-23T02:58:40;13.10;;;7.23;;
16101;SDS011;56411;52.964;10.540;2022-07-23T03:01:07;13.27;;;8.00;;
16101;SDS011;56411;52.964;10.540;2022-07-23T03:03:34;12.93;;;7.85;;
16101;SDS011;56411;52.964;10.540;2022-07-23T03:06:02;14.73;;;7.82;;
16101;SDS011;56411;52.964;10.540;2022-07-23T03:08:29;14.53;;;8.17;;
16101;SDS011;56411;52.964;10.540;2022-07-23T03:10:56;13.27;;;7.70;;
16101;SDS011;56411;52.964;10.540;2022-07-23T03:13:23;15.47;;;7.90;;
16101;SDS011;56411;52.964;10.540;2022-07-23T03:15:50;14.13;;;7.30;;
16101;SDS011;56411;52.964;10.540;2022-07-23T03:18:16;12.70;;;7.23;;
16101;SDS011;56411;52.964;10.540;2022-07-23T03:20:43;13.60;;;7.70;;
16101;SDS011;56411;52.964;10.540;2022-07-23T03:23:12;14.63;;;6.60;;
16101;SDS011;56411;52.964;10.540;2022-07-23T03:25:38;11.70;;;5.97;;
16101;SDS011;56411;52.964;10.540;2022-07-23T03:28:05;11.73;;;5.83;;
16101;SDS011;56411;52.964;10.540;2022-07-23T03:30:32;11.53;;;5.93;;
16101;SDS011;56411;52.964;10.540;2022-07-23T03:32:59;11.43;;;5.80;;
16101;SDS011;56411;52.964;10.540;2022-07-23T03:35:26;12.40;;;5.90;;
16101;SDS011;56411;52.964;10.540;2022-07-23T03:37:53;11.60;;;5.97;;
16101;SDS011;56411;52.964;10.540;2022-07-23T03:40:21;10.50;;;5.33;;
16101;SDS011;56411;52.964;10.540;2022-07-23T03:42:48;10.07;;;5.27;;
16101;SDS011;56411;52.964;10.540;2022-07-23T03:45:15;12.73;;;5.90;;
16101;SDS011;56411;52.964;10.540;2022-07-23T03:47:42;10.38;;;5.32;;
16101;SDS011;56411;52.964;10.540;2022-07-23T03:50:09;9.97;;;5.20;;
16101;SDS011;56411;52.964;10.540;2022-07-23T03:52:36;13.33;;;5.50;;
16101;SDS011;56411;52.964;10.540;2022-07-23T03:55:03;10.73;;;5.00;;
16101;SDS011;56411;52.964;10.540;2022-07-23T03:57:32;13.13;;;5.50;;
16101;SDS011;56411;52.964;10.540;2022-07-23T03:59:59;11.77;;;5.20;;
16101;SDS011;56411;52.964;10.540;2022-07-23T04:02:26;10.15;;;5.43;;
16101;SDS011;56411;52.964;10.540;2022-07-23T04:04:53;10.77;;;5.80;;
16101;SDS011;56411;52.964;10.540;2022-07-23T04:07:20;13.30;;;6.23;;
16101;SDS011;56411;52.964;10.540;2022-07-23T04:09:47;12.07;;;6.63;;
16101;SDS011;56411;52.964;10.540;2022-07-23T04:12:14;11.60;;;6.65;;
16101;SDS011;56411;52.964;10.540;2022-07-23T04:14:42;11.07;;;6.28;;
16101;SDS011;56411;52.964;10.540;2022-07-23T04:17:09;13.32;;;6.72;;
16101;SDS011;56411;52.964;10.540;2022-07-23T04:19:36;14.38;;;7.55;;
16101;SDS011;56411;52.964;10.540;2022-07-23T04:22:05;14.55;;;7.65;;
16101;SDS011;56411;52.964;10.540;2022-07-23T04:24:32;13.80;;;7.63;;
16101;SDS011;56411;52.964;10.540;2022-07-23T04:27:00;13.55;;;7.68;;
16101;SDS011;56411;52.964;10.540;2022-07-23T04:29:27;14.70;;;7.73;;
16101;SDS011;56411;52.964;10.540;2022-07-23T04:31:56;14.33;;;7.90;;
16101;SDS011;56411;52.964;10.540;2022-07-23T04:34:23;13.83;;;8.07;;
16101;SDS011;56411;52.964;10.540;2022-07-23T04:36:51;16.47;;;8.63;;
16101;SDS011;56411;52.964;10.540;2022-07-23T04:39:18;15.17;;;8.13;;
16101;SDS011;56411;52.964;10.540;2022-07-23T04:41:45;14.50;;;9.03;;
16101;SDS011;56411;52.964;10.540;2022-07-23T04:44:12;14.47;;;7.83;;
16101;SDS011;56411;52.964;10.540;2022-07-23T04:46:39;13.88;;;8.38;;
16101;SDS011;56411;52.964;10.540;2022-07-23T04:49:07;14.77;;;7.88;;
16101;SDS011;56411;52.964;10.540;2022-07-23T04:51:34;17.00;;;8.13;;
16101;SDS011;56411;52.964;10.540;2022-07-23T04:54:01;15.80;;;9.07;;
16101;SDS011;56411;52.964;10.540;2022-07-23T04:56:28;14.40;;;8.93;;
16101;SDS011;56411;52.964;10.540;2022-07-23T04:58:55;14.27;;;8.50;;
16101;SDS011;56411;52.964;10.540;2022-07-23T05:01:22;14.10;;;8.77;;
16101;SDS011;56411;52.964;10.540;2022-07-23T05:03:49;12.40;;;8.20;;
16101;SDS011;56411;52.964;10.540;2022-07-23T05:06:17;12.83;;;7.97;;
16101;SDS011;56411;52.964;10.540;2022-07-23T05:08:44;16.80;;;9.13;;
16101;SDS011;56411;52.964;10.540;2022-07-23T05:11:11;15.50;;;9.33;;
16101;SDS011;56411;52.964;10.540;2022-07-23T05:13:38;14.37;;;8.20;;
16101;SDS011;56411;52.964;10.540;2022-07-23T05:16:04;14.02;;;8.25;;
16101;SDS011;56411;52.964;10.540;2022-07-23T05:18:31;15.63;;;7.97;;
16101;SDS011;56411;52.964;10.540;2022-07-23T05:20:58;15.57;;;7.27;;
16101;SDS011;56411;52.964;10.540;2022-07-23T05:23:27;11.67;;;6.97;;
16101;SDS011;56411;52.964;10.540;2022-07-23T05:25:54;13.18;;;7.10;;
16101;SDS011;56411;52.964;10.540;2022-07-23T05:28:21;12.98;;;6.68;;
16101;SDS011;56411;52.964;10.540;2022-07-23T05:30:47;12.02;;;6.43;;
16101;SDS011;56411;52.964;10.540;2022-07-23T05:33:14;13.48;;;7.20;;
16101;SDS011;56411;52.964;10.540;2022-07-23T05:35:41;12.32;;;6.68;;
16101;SDS011;56411;52.964;10.540;2022-07-23T05:38:08;11.00;;;6.38;;
16101;SDS011;56411;52.964;10.540;2022-07-23T05:40:36;12.88;;;6.30;;
16101;SDS011;56411;52.964;10.540;2022-07-23T05:43:03;11.98;;;6.20;;
16101;SDS011;56411;52.964;10.540;2022-07-23T05:45:30;12.70;;;6.10;;
16101;SDS011;56411;52.964;10.540;2022-07-23T05:47:57;11.30;;;6.25;;
16101;SDS011;56411;52.964;10.540;2022-07-23T05:50:24;12.07;;;6.10;;
16101;SDS011;56411;52.964;10.540;2022-07-23T05:52:51;12.63;;;6.18;;
16101;SDS011;56411;52.964;10.540;2022-07-23T05:55:18;11.90;;;5.95;;
16101;SDS011;56411;52.964;10.540;2022-07-23T05:57:46;13.27;;;5.13;;
16101;SDS011;56411;52.964;10.540;2022-07-23T06:00:13;9.68;;;4.40;;
16101;SDS011;56411;52.964;10.540;2022-07-23T06:02:40;9.13;;;4.45;;
16101;SDS011;56411;52.964;10.540;2022-07-23T06:05:07;10.30;;;3.92;;
16101;SDS011;56411;52.964;10.540;2022-07-23T06:07:35;9.05;;;3.80;;
16101;SDS011;56411;52.964;10.540;2022-07-23T06:10:02;10.27;;;4.38;;
16101;SDS011;56411;52.964;10.540;2022-07-23T06:12:30;8.10;;;3.70;;
16101;SDS011;56411;52.964;10.540;2022-07-23T06:14:58;9.27;;;3.50;;
16101;SDS011;56411;52.964;10.540;2022-07-23T06:17:25;9.00;;;3.40;;
16101;SDS011;56411;52.964;10.540;2022-07-23T06:19:52;8.98;;;3.35;;
16101;SDS011;56411;52.964;10.540;2022-07-23T06:22:20;7.45;;;3.40;;
16101;SDS011;56411;52.964;10.540;2022-07-23T06:24:47;8.35;;;3.40;;
16101;SDS011;56411;52.964;10.540;2022-07-23T06:27:16;6.53;;;3.28;;
16101;SDS011;56411;52.964;10.540;2022-07-23T06:29:43;7.18;;;3.40;;
16101;SDS011;56411;52.964;10.540;2022-07-23T06:32:11;9.27;;;4.32;;
16101;SDS011;56411;52.964;10.540;2022-07-23T06:34:38;9.57;;;4.30;;
16101;SDS011;56411;52.964;10.540;2022-07-23T06:37:05;10.05;;;4.30;;
16101;SDS011;56411;52.964;10.540;2022-07-23T06:39:32;9.57;;;3.78;;
16101;SDS011;56411;52.964;10.540;2022-07-23T06:41:59;9.95;;;4.10;;
16101;SDS011;56411;52.964;10.540;2022-07-23T06:44:27;10.10;;;4.10;;
16101;SDS011;56411;52.964;10.540;2022-07-23T06:46:54;8.52;;;4.13;;
16101;SDS011;56411;52.964;10.540;2022-07-23T06:49:22;9.00;;;3.60;;
16101;SDS011;56411;52.964;10.540;2022-07-23T06:51:49;7.95;;;3.40;;
16101;SDS011;56411;52.964;10.540;2022-07-23T06:54:16;7.82;;;3.90;;
16101;SDS011;56411;52.964;10.540;2022-07-23T06:56:43;7.10;;;3.85;;
16101;SDS011;56411;52.964;10.540;2022-07-23T06:59:10;7.75;;;3.63;;
16101;SDS011;56411;52.964;10.540;2022-07-23T07:01:37;8.20;;;3.47;;
16101;SDS011;56411;52.964;10.540;2022-07-23T07:04:04;7.22;;;3.53;;
16101;SDS011;56411;52.964;10.540;2022-07-23T07:06:32;4.75;;;2.60;;
16101;SDS011;56411;52.964;10.540;2022-07-23T07:08:59;9.60;;;3.20;;
16101;SDS011;56411;52.964;10.540;2022-07-23T07:11:26;7.90;;;2.88;;
16101;SDS011;56411;52.964;10.540;2022-07-23T07:13:53;8.07;;;3.10;;
16101;SDS011;56411;52.964;10.540;2022-07-23T07:16:20;6.72;;;2.75;;
16101;SDS011;56411;52.964;10.540;2022-07-23T07:18:47;5.40;;;2.30;;
16101;SDS011;56411;52.964;10.540;2022-07-23T07:21:13;8.30;;;2.50;;
16101;SDS011;56411;52.964;10.540;2022-07-23T07:23:42;5.68;;;2.25;;
16101;SDS011;56411;52.964;10.540;2022-07-23T07:26:09;8.85;;;2.72;;
16101;SDS011;56411;52.964;10.540;2022-07-23T07:28:36;4.00;;;2.28;;
16101;SDS011;56411;52.964;10.540;2022-07-23T07:31:04;5.93;;;2.22;;
16101;SDS011;56411;52.964;10.540;2022-07-23T07:33:31;4.18;;;2.33;;
16101;SDS011;56411;52.964;10.540;2022-07-23T07:35:58;6.10;;;2.47;;
16101;SDS011;56411;52.964;10.540;2022-07-23T07:38:25;6.30;;;2.90;;
16101;SDS011;56411;52.964;10.540;2022-07-23T07:40:54;7.47;;;2.70;;
16101;SDS011;56411;52.964;10.540;2022-07-23T07:43:21;7.43;;;2.97;;
16101;SDS011;56411;52.964;10.540;2022-07-23T07:45:47;9.20;;;3.20;;
16101;SDS011;56411;52.964;10.540;2022-07-23T07:48:14;6.68;;;3.10;;
16101;SDS011;56411;52.964;10.540;2022-07-23T07:50:41;7.00;;;2.80;;
16101;SDS011;56411;52.964;10.540;2022-07-23T07:53:08;8.38;;;2.78;;
16101;SDS011;56411;52.964;10.540;2022-07-23T07:55:35;8.23;;;3.10;;
16101;SDS011;56411;52.964;10.540;2022-07-23T07:58:04;5.32;;;2.75;;
16101;SDS011;56411;52.964;10.540;2022-07-23T08:00:31;8.88;;;3.85;;
16101;SDS011;56411;52.964;10.540;2022-07-23T08:02:58;8.15;;;3.13;;
16101;SDS011;56411;52.964;10.540;2022-07-23T08:05:27;8.90;;;3.30;;
16101;SDS011;56411;52.964;10.540;2022-07-23T08:07:56;7.60;;;3.10;;
16101;SDS011;56411;52.964;10.540;2022-07-23T08:10:24;8.77;;;3.90;;
16101;SDS011;56411;52.964;10.540;2022-07-23T08:12:56;9.15;;;3.50;;
16101;SDS011;56411;52.964;10.540;2022-07-23T08:15:28;7.88;;;3.47;;
16101;SDS011;56411;52.964;10.540;2022-07-23T08:18:00;8.10;;;3.63;;
16101;SDS011;56411;52.964;10.540;2022-07-23T08:20:28;8.73;;;3.60;;
16101;SDS011;56411;52.964;10.540;2022-07-23T08:22:56;8.45;;;3.60;;
16101;SDS011;56411;52.964;10.540;2022-07-23T08:25:25;9.90;;;4.20;;
16101;SDS011;56411;52.964;10.540;2022-07-23T08:27:53;12.80;;;4.50;;
16101;SDS011;56411;52.964;10.540;2022-07-23T08:30:20;9.88;;;5.00;;
16101;SDS011;56411;52.964;10.540;2022-07-23T08:32:50;10.02;;;4.72;;
16101;SDS011;56411;52.964;10.540;2022-07-23T08:35:21;11.25;;;5.55;;
16101;SDS011;56411;52.964;10.540;2022-07-23T08:37:49;11.15;;;5.55;;
16101;SDS011;56411;52.964;10.540;2022-07-23T08:40:17;11.63;;;5.45;;
16101;SDS011;56411;52.964;10.540;2022-07-23T08:42:45;12.15;;;5.60;;
16101;SDS011;56411;52.964;10.540;2022-07-23T08:45:16;11.25;;;5.55;;
16101;SDS011;56411;52.964;10.540;2022-07-23T08:47:45;12.10;;;5.57;;
16101;SDS011;56411;52.964;10.540;2022-07-23T08:50:16;10.15;;;4.07;;
16101;SDS011;56411;52.964;10.540;2022-07-23T08:52:43;7.72;;;3.80;;
16101;SDS011;56411;52.964;10.540;2022-07-23T08:55:10;6.47;;;3.30;;
16101;SDS011;56411;52.964;10.540;2022-07-23T08:57:38;7.90;;;3.17;;
16101;SDS011;56411;52.964;10.540;2022-07-23T09:00:05;7.13;;;3.30;;
16101;SDS011;56411;52.964;10.540;2022-07-23T09:02:38;7.00;;;3.72;;
16101;SDS011;56411;52.964;10.540;2022-07-23T09:05:06;8.73;;;3.42;;
16101;SDS011;56411;52.964;10.540;2022-07-23T09:07:35;8.60;;;3.83;;
16101;SDS011;56411;52.964;10.540;2022-07-23T09:10:09;7.28;;;3.70;;
16101;SDS011;56411;52.964;10.540;2022-07-23T09:12:37;8.95;;;3.40;;
16101;SDS011;56411;52.964;10.540;2022-07-23T09:15:05;7.80;;;3.30;;
16101;SDS011;56411;52.964;10.540;2022-07-23T09:17:37;6.63;;;2.80;;
16101;SDS011;56411;52.964;10.540;2022-07-23T09:20:08;7.15;;;3.28;;
16101;SDS011;56411;52.964;10.540;2022-07-23T09:22:38;8.02;;;3.17;;
16101;SDS011;56411;52.964;10.540;2022-07-23T09:25:10;7.65;;;3.55;;
16101;SDS011;56411;52.964;10.540;2022-07-23T09:30:28;6.88;;;3.30;;
16101;SDS011;56411;52.964;10.540;2022-07-23T09:33:09;6.18;;;3.15;;
16101;SDS011;56411;52.964;10.540;2022-07-23T09:35:44;7.90;;;3.45;;
16101;SDS011;56411;52.964;10.540;2022-07-23T09:38:14;7.57;;;3.30;;
16101;SDS011;56411;52.964;10.540;2022-07-23T09:40:45;7.18;;;3.10;;
16101;SDS011;56411;52.964;10.540;2022-07-23T09:43:13;4.88;;;3.03;;
16101;SDS011;56411;52.964;10.540;2022-07-23T09:45:53;6.93;;;3.30;;
16101;SDS011;56411;52.964;10.540;2022-07-23T09:48:40;8.07;;;3.22;;
16101;SDS011;56411;52.964;10.540;2022-07-23T09:51:07;4.30;;;2.40;;
16101;SDS011;56411;52.964;10.540;2022-07-23T09:53:35;4.63;;;2.60;;
16101;SDS011;56411;52.964;10.540;2022-07-23T09:56:02;4.30;;;2.40;;
16101;SDS011;56411;52.964;10.540;2022-07-23T09:58:30;4.85;;;2.60;;
16101;SDS011;56411;52.964;10.540;2022-07-23T10:00:57;3.58;;;2.70;;
16101;SDS011;56411;52.964;10.540;2022-07-23T10:03:25;9.18;;;2.90;;
16101;SDS011;56411;52.964;10.540;2022-07-23T10:05:52;5.22;;;2.80;;
16101;SDS011;56411;52.964;10.540;2022-07-23T10:08:19;4.65;;;2.55;;
16101;SDS011;56411;52.964;10.540;2022-07-23T10:10:56;4.60;;;2.78;;
16101;SDS011;56411;52.964;10.540;2022-07-23T10:13:23;4.30;;;2.58;;
16101;SDS011;56411;52.964;10.540;2022-07-23T10:16:09;4.72;;;2.80;;
16101;SDS011;56411;52.964;10.540;2022-07-23T10:18:36;4.78;;;2.60;;
16101;SDS011;56411;52.964;10.540;2022-07-23T10:21:03;3.70;;;2.60;;
16101;SDS011;56411;52.964;10.540;2022-07-23T10:23:35;4.90;;;2.50;;
16101;SDS011;56411;52.964;10.540;2022-07-23T10:26:11;2.85;;;2.20;;
16101;SDS011;56411;52.964;10.540;2022-07-23T10:29:01;4.72;;;2.38;;
16101;SDS011;56411;52.964;10.540;2022-07-23T10:31:38;4.68;;;2.17;;
16101;SDS011;56411;52.964;10.540;2022-07-23T10:34:14;3.67;;;2.00;;
16101;SDS011;56411;52.964;10.540;2022-07-23T10:36:49;5.38;;;2.10;;
16101;SDS011;56411;52.964;10.540;2022-07-23T10:39:22;4.43;;;2.00;;
16101;SDS011;56411;52.964;10.540;2022-07-23T10:41:52;4.72;;;2.10;;
16101;SDS011;56411;52.964;10.540;2022-07-23T10:44:37;5.60;;;2.10;;
16101;SDS011;56411;52.964;10.540;2022-07-23T10:47:05;4.05;;;2.22;;
16101;SDS011;56411;52.964;10.540;2022-07-23T10:50:19;5.22;;;2.15;;
16101;SDS011;56411;52.964;10.540;2022-07-23T10:53:07;3.58;;;2.20;;
16101;SDS011;56411;52.964;10.540;2022-07-23T10:55:41;2.90;;;1.90;;
16101;SDS011;56411;52.964;10.540;2022-07-23T10:58:11;3.85;;;2.00;;
16101;SDS011;56411;52.964;10.540;2022-07-23T11:00:43;4.93;;;2.10;;
16101;SDS011;56411;52.964;10.540;2022-07-23T11:05:57;2.42;;;2.13;;
16101;SDS011;56411;52.964;10.540;2022-07-23T11:08:24;4.57;;;2.15;;
16101;SDS011;56411;52.964;10.540;2022-07-23T11:10:52;2.92;;;2.03;;
16101;SDS011;56411;52.964;10.540;2022-07-23T11:13:32;2.42;;;1.95;;
16101;SDS011;56411;52.964;10.540;2022-07-23T11:16:07;6.55;;;2.10;;
16101;SDS011;56411;52.964;10.540;2022-07-23T11:18:53;4.15;;;2.10;;
16101;SDS011;56411;52.964;10.540;2022-07-23T11:24:11;3.08;;;1.88;;
16101;SDS011;56411;52.964;10.540;2022-07-23T11:26:47;3.33;;;1.80;;
16101;SDS011;56411;52.964;10.540;2022-07-23T11:32:19;3.10;;;1.90;;
16101;SDS011;56411;52.964;10.540;2022-07-23T11:35:06;3.92;;;1.80;;
16101;SDS011;56411;52.964;10.540;2022-07-23T11:37:48;3.17;;;1.50;;
16101;SDS011;56411;52.964;10.540;2022-07-23T11:40:19;3.53;;;1.70;;
16101;SDS011;56411;52.964;10.540;2022-07-23T11:42:51;3.42;;;2.05;;
16101;SDS011;56411;52.964;10.540;2022-07-23T11:45:21;1.83;;;1.60;;
16101;SDS011;56411;52.964;10.540;2022-07-23T11:47:49;2.53;;;1.77;;
16101;SDS011;56411;52.964;10.540;2022-07-23T11:50:16;3.63;;;1.70;;
16101;SDS011;56411;52.964;10.540;2022-07-23T11:52:42;3.72;;;2.13;;
16101;SDS011;56411;52.964;10.540;2022-07-23T11:55:10;3.03;;;2.20;;
16101;SDS011;56411;52.964;10.540;2022-07-23T11:57:38;3.55;;;2.03;;
16101;SDS011;56411;52.964;10.540;2022-07-23T12:00:07;4.35;;;2.20;;
16101;SDS011;56411;52.964;10.540;2022-07-23T12:02:37;4.00;;;2.40;;
16101;SDS011;56411;52.964;10.540;2022-07-23T12:05:05;3.75;;;2.20;;
16101;SDS011;56411;52.964;10.540;2022-07-23T12:07:35;3.88;;;2.03;;
16101;SDS011;56411;52.964;10.540;2022-07-23T12:10:03;3.47;;;2.22;;
16101;SDS011;56411;52.964;10.540;2022-07-23T12:12:35;4.88;;;2.30;;
16101;SDS011;56411;52.964;10.540;2022-07-23T12:15:03;4.55;;;2.20;;
16101;SDS011;56411;52.964;10.540;2022-07-23T12:17:33;3.67;;;2.20;;
16101;SDS011;56411;52.964;10.540;2022-07-23T12:20:02;2.72;;;1.90;;
16101;SDS011;56411;52.964;10.540;2022-07-23T12:22:35;3.13;;;1.80;;
16101;SDS011;56411;52.964;10.540;2022-07-23T12:25:04;2.42;;;1.63;;
16101;SDS011;56411;52.964;10.540;2022-07-23T12:27:33;3.45;;;2.20;;
16101;SDS011;56411;52.964;10.540;2022-07-23T12:30:17;2.35;;;1.60;;
16101;SDS011;56411;52.964;10.540;2022-07-23T12:32:46;3.88;;;1.88;;
16101;SDS011;56411;52.964;10.540;2022-07-23T12:35:16;3.25;;;1.88;;
16101;SDS011;56411;52.964;10.540;2022-07-23T12:37:44;3.47;;;1.70;;
16101;SDS011;56411;52.964;10.540;2022-07-23T12:40:22;1.60;;;1.50;;
16101;SDS011;56411;52.964;10.540;2022-07-23T12:42:51;1.85;;;1.50;;
16101;SDS011;56411;52.964;10.540;2022-07-23T12:45:20;2.38;;;1.60;;
16101;SDS011;56411;52.964;10.540;2022-07-23T12:53:22;3.40;;;1.60;;
16101;SDS011;56411;52.964;10.540;2022-07-23T12:55:51;2.97;;;1.80;;
16101;SDS011;56411;52.964;10.540;2022-07-23T12:58:25;4.13;;;1.98;;
16101;SDS011;56411;52.964;10.540;2022-07-23T13:00:56;1.67;;;1.52;;
16101;SDS011;56411;52.964;10.540;2022-07-23T13:03:30;2.75;;;1.48;;
16101;SDS011;56411;52.964;10.540;2022-07-23T13:06:04;1.58;;;1.40;;
16101;SDS011;56411;52.964;10.540;2022-07-23T13:08:32;1.88;;;1.55;;
16101;SDS011;56411;52.964;10.540;2022-07-23T13:11:01;1.80;;;1.60;;
16101;SDS011;56411;52.964;10.540;2022-07-23T13:13:30;1.80;;;1.20;;
16101;SDS011;56411;52.964;10.540;2022-07-23T13:15:58;1.58;;;1.30;;
16101;SDS011;56411;52.964;10.540;2022-07-23T13:18:25;2.47;;;1.50;;
16101;SDS011;56411;52.964;10.540;2022-07-23T13:20:53;1.73;;;1.25;;
16101;SDS011;56411;52.964;10.540;2022-07-23T13:23:22;1.90;;;1.30;;
16101;SDS011;56411;52.964;10.540;2022-07-23T13:25:49;1.60;;;1.20;;
16101;SDS011;56411;52.964;10.540;2022-07-23T13:28:17;3.65;;;1.63;;
16101;SDS011;56411;52.964;10.540;2022-07-23T13:30:45;1.27;;;1.23;;
16101;SDS011;56411;52.964;10.540;2022-07-23T13:33:14;0.82;;;0.82;;
16101;SDS011;56411;52.964;10.540;2022-07-23T13:35:42;2.00;;;1.17;;
16101;SDS011;56411;52.964;10.540;2022-07-23T13:38:09;2.20;;;1.00;;
16101;SDS011;56411;52.964;10.540;2022-07-23T13:40:38;2.28;;;1.35;;
16101;SDS011;56411;52.964;10.540;2022-07-23T13:43:08;2.50;;;1.30;;
16101;SDS011;56411;52.964;10.540;2022-07-23T13:45:36;2.55;;;1.10;;
16101;SDS011;56411;52.964;10.540;2022-07-23T13:48:04;2.35;;;1.30;;
16101;SDS011;56411;52.964;10.540;2022-07-23T13:50:32;1.77;;;1.10;;
16101;SDS011;56411;52.964;10.540;2022-07-23T13:53:00;1.65;;;1.15;;
16101;SDS011;56411;52.964;10.540;2022-07-23T13:55:28;10.20;;;1.50;;
16101;SDS011;56411;52.964;10.540;2022-07-23T13:57:56;2.10;;;1.30;;
16101;SDS011;56411;52.964;10.540;2022-07-23T14:00:24;3.22;;;1.35;;
16101;SDS011;56411;52.964;10.540;2022-07-23T14:02:52;1.98;;;1.13;;
16101;SDS011;56411;52.964;10.540;2022-07-23T14:05:19;1.73;;;1.30;;
16101;SDS011;56411;52.964;10.540;2022-07-23T14:07:46;2.50;;;1.20;;
16101;SDS011;56411;52.964;10.540;2022-07-23T14:10:15;2.25;;;1.30;;
16101;SDS011;56411;52.964;10.540;2022-07-23T14:12:43;2.13;;;0.93;;
16101;SDS011;56411;52.964;10.540;2022-07-23T14:15:11;2.78;;;1.30;;
16101;SDS011;56411;52.964;10.540;2022-07-23T14:17:39;2.45;;;1.40;;
16101;SDS011;56411;52.964;10.540;2022-07-23T14:20:07;2.10;;;1.25;;
16101;SDS011;56411;52.964;10.540;2022-07-23T14:22:35;2.22;;;1.10;;
16101;SDS011;56411;52.964;10.540;2022-07-23T14:25:03;2.33;;;1.17;;
16101;SDS011;56411;52.964;10.540;2022-07-23T14:27:30;1.80;;;1.30;;
16101;SDS011;56411;52.964;10.540;2022-07-23T14:29:58;2.95;;;1.70;;
16101;SDS011;56411;52.964;10.540;2022-07-23T14:32:26;3.08;;;1.80;;
16101;SDS011;56411;52.964;10.540;2022-07-23T14:34:54;4.18;;;2.30;;
16101;SDS011;56411;52.964;10.540;2022-07-23T14:37:21;1.80;;;1.40;;
16101;SDS011;56411;52.964;10.540;2022-07-23T14:39:48;1.95;;;1.15;;
16101;SDS011;56411;52.964;10.540;2022-07-23T14:42:14;1.83;;;1.30;;
16101;SDS011;56411;52.964;10.540;2022-07-23T14:44:41;1.20;;;1.10;;
16101;SDS011;56411;52.964;10.540;2022-07-23T14:47:08;1.00;;;1.00;;
16101;SDS011;56411;52.964;10.540;2022-07-23T14:49:37;2.67;;;1.15;;
16101;SDS011;56411;52.964;10.540;2022-07-23T14:52:04;1.45;;;1.10;;
16101;SDS011;56411;52.964;10.540;2022-07-23T14:54:32;1.33;;;1.23;;
16101;SDS011;56411;52.964;10.540;2022-07-23T14:57:00;1.23;;;1.00;;